Time;durP1;ratioP1;P1;durP2;ratioP2;P2;SDS_P1;SDS_P2;PMS_P1;PMS_P2;Temp;Humidity;BMP_temperature;BMP_pressure;BME280_temperature;BME280_humidity;BME280_pressure;Samples;Min_cycle;Max_cycle;Signal;HPM_P1;HPM_P2
2021/01/26 00:00:39;;;;;;;43.97;26.85;;;;;;;2.83;61.61;98858.19;5044142;28;20117;-71
2021/01/26 00:03:06;;;;;;;35.25;21.52;;;;;;;2.82;61.59;98861.72;5045585;28;20053;-70
2021/01/26 00:05:32;;;;;;;36.40;23.85;;;;;;;2.82;61.80;98866.94;5045489;28;20102;-71
2021/01/26 00:07:59;;;;;;;37.22;23.35;;;;;;;2.86;61.77;98871.00;5045439;28;20552;-70
2021/01/26 00:10:26;;;;;;;42.30;23.92;;;;;;;2.86;61.91;98866.66;5043789;28;20047;-71
2021/01/26 00:12:52;;;;;;;39.10;26.88;;;;;;;2.85;61.99;98862.34;5045580;28;20068;-72
2021/01/26 00:15:19;;;;;;;40.55;27.75;;;;;;;2.85;61.83;98870.19;5045638;28;20056;-72
2021/01/26 00:17:46;;;;;;;37.53;26.20;;;;;;;2.79;61.99;98865.38;5045164;28;20049;-71
2021/01/26 00:20:14;;;;;;;38.75;25.90;;;;;;;2.84;62.58;98872.88;5045754;28;20452;-72
2021/01/26 00:22:41;;;;;;;37.90;28.45;;;;;;;2.82;62.22;98869.53;5044706;28;20049;-72
2021/01/26 00:25:12;;;;;;;35.88;24.63;;;;;;;2.81;62.75;98876.53;5045635;28;20071;-71
2021/01/26 00:27:39;;;;;;;42.50;29.63;;;;;;;2.84;62.26;98875.47;5045323;28;20469;-72
2021/01/26 00:30:08;;;;;;;42.55;29.95;;;;;;;2.86;62.35;98869.25;5046411;28;20048;-73
2021/01/26 00:32:34;;;;;;;44.30;29.33;;;;;;;2.79;62.72;98875.78;5046188;28;20052;-72
2021/01/26 00:35:01;;;;;;;42.03;26.35;;;;;;;2.80;62.99;98879.22;5047001;28;20056;-71
2021/01/26 00:37:27;;;;;;;38.80;26.33;;;;;;;2.75;63.42;98882.09;5047321;28;20089;-72
2021/01/26 00:39:54;;;;;;;41.97;30.98;;;;;;;2.75;63.18;98876.88;5045991;28;20052;-73
2021/01/26 00:42:22;;;;;;;42.38;26.88;;;;;;;2.78;63.27;98887.13;5046390;28;20056;-71
2021/01/26 00:44:48;;;;;;;38.47;27.05;;;;;;;2.75;63.36;98876.88;5047156;28;20143;-72
2021/01/26 00:47:15;;;;;;;39.42;26.90;;;;;;;2.77;63.29;98882.00;5046765;28;20493;-72
2021/01/26 00:49:41;;;;;;;41.95;28.80;;;;;;;2.84;63.03;98881.53;5047787;28;20402;-71
2021/01/26 00:52:07;;;;;;;36.95;29.23;;;;;;;2.79;62.98;98888.81;5060737;28;20408;-72
2021/01/26 00:54:34;;;;;;;37.85;26.77;;;;;;;2.77;63.18;98882.00;5065865;28;20188;-71
2021/01/26 00:57:04;;;;;;;41.08;28.58;;;;;;;2.82;62.34;98883.41;5065739;28;20045;-71
2021/01/26 00:59:32;;;;;;;43.00;26.45;;;;;;;2.81;62.75;98889.56;5064461;28;20077;-70
2021/01/26 01:01:58;;;;;;;42.45;29.95;;;;;;;2.82;62.50;98883.41;5065454;28;20043;-70
2021/01/26 01:04:25;;;;;;;43.95;26.05;;;;;;;2.77;62.69;98882.84;5065600;28;20029;-71
2021/01/26 01:06:51;;;;;;;39.45;25.17;;;;;;;2.78;62.59;98879.31;5065290;28;20044;-73
2021/01/26 01:09:18;;;;;;;41.33;30.73;;;;;;;2.76;62.82;98881.19;5065839;28;20041;-71
2021/01/26 01:11:44;;;;;;;36.08;24.70;;;;;;;2.75;62.99;98879.50;5061877;28;20098;-71
2021/01/26 01:14:10;;;;;;;40.55;28.33;;;;;;;2.71;63.29;98875.41;5063633;28;20168;-73
2021/01/26 01:16:38;;;;;;;43.47;29.63;;;;;;;2.72;63.43;98868.44;5063468;28;20037;-72
2021/01/26 01:19:04;;;;;;;39.17;30.30;;;;;;;2.71;63.75;98866.78;5064019;28;20049;-70
2021/01/26 01:21:31;;;;;;;46.15;30.13;;;;;;;2.65;63.71;98868.00;5061567;28;20607;-70
2021/01/26 01:23:57;;;;;;;41.55;29.08;;;;;;;2.72;63.76;98871.91;5053936;28;20052;-71
2021/01/26 01:26:24;;;;;;;39.80;29.23;;;;;;;2.76;63.81;98867.31;5051982;28;20045;-70
2021/01/26 01:28:50;;;;;;;42.05;29.63;;;;;;;2.71;63.99;98875.41;5052528;28;20397;-71
2021/01/26 01:31:16;;;;;;;39.40;28.27;;;;;;;2.64;64.02;98881.94;5051021;28;20048;-70
2021/01/26 01:33:44;;;;;;;42.28;28.17;;;;;;;2.66;64.25;98880.06;5050859;28;20045;-71
2021/01/26 01:36:10;;;;;;;42.22;27.15;;;;;;;2.66;64.43;98880.91;5053656;28;20063;-71
2021/01/26 01:38:36;;;;;;;40.78;29.48;;;;;;;2.65;64.42;98875.81;5051947;28;20139;-70
2021/01/26 01:41:03;;;;;;;41.60;30.10;;;;;;;2.68;64.37;98875.59;5050555;28;20113;-70
2021/01/26 01:43:29;;;;;;;38.75;29.73;;;;;;;2.67;64.04;98873.94;5051724;28;20091;-70
2021/01/26 01:45:56;;;;;;;39.63;29.02;;;;;;;2.63;64.17;98872.47;5051600;28;20056;-70
2021/01/26 01:48:26;;;;;;;40.30;26.98;;;;;;;2.61;64.50;98869.09;5052838;28;20045;-70
2021/01/26 01:51:02;;;;;;;44.25;30.65;;;;;;;2.62;64.19;98874.22;5051116;28;20052;-70
2021/01/26 01:53:32;;;;;;;39.90;26.40;;;;;;;2.64;64.42;98871.53;5049831;28;20053;-71
2021/01/26 01:56:05;;;;;;;42.63;27.20;;;;;;;2.59;64.26;98869.22;5049982;28;20061;-72
2021/01/26 01:58:37;;;;;;;40.50;28.92;;;;;;;2.57;64.74;98873.66;5048356;28;20373;-69
2021/01/26 02:01:09;;;;;;;39.13;28.58;;;;;;;2.58;64.61;98875.34;5047543;28;20045;-72
2021/01/26 02:03:39;;;;;;;37.58;25.42;;;;;;;2.60;64.70;98877.84;5050884;28;20053;-71
2021/01/26 02:06:07;;;;;;;43.33;30.58;;;;;;;2.60;64.34;98870.88;5051596;28;20044;-71
2021/01/26 02:08:40;;;;;;;38.95;26.88;;;;;;;2.61;64.67;98884.72;5034441;28;20041;-71
2021/01/26 02:11:06;;;;;;;41.33;27.42;;;;;;;2.64;64.22;98868.91;5049770;28;20067;-71
2021/01/26 02:13:33;;;;;;;39.15;26.02;;;;;;;2.66;64.53;98885.28;5052088;28;20049;-71
2021/01/26 02:16:02;;;;;;;51.40;31.33;;;;;;;2.64;64.75;98889.75;5051769;28;20523;-71
2021/01/26 02:18:55;;;;;;;41.72;30.95;;;;;;;2.66;64.53;98890.50;5051768;28;20049;-70
2021/01/26 02:21:55;;;;;;;45.15;26.63;;;;;;;2.66;64.74;98885.28;5050487;28;20144;-69
2021/01/26 02:24:51;;;;;;;36.78;26.25;;;;;;;2.67;64.64;98894.78;5051875;28;20499;-74
2021/01/26 02:27:51;;;;;;;45.05;31.42;;;;;;;2.65;64.52;98886.25;5046813;28;20384;-72
2021/01/26 02:30:37;;;;;;;41.97;29.52;;;;;;;2.67;64.49;98902.63;5050745;28;20049;-71
2021/01/26 02:33:44;;;;;;;42.20;28.80;;;;;;;2.65;64.91;98897.50;5050394;28;20045;-71
2021/01/26 02:37:04;;;;;;;39.83;26.98;;;;;;;2.66;64.73;98899.16;5050563;28;20045;-72
2021/01/26 02:39:36;;;;;;;44.65;29.40;;;;;;;2.60;64.86;98898.72;5050120;28;20045;-70
2021/01/26 02:42:25;;;;;;;41.45;31.05;;;;;;;2.59;64.66;98899.63;5048978;28;20067;-70
2021/01/26 02:45:22;;;;;;;42.13;32.15;;;;;;;2.65;64.27;98901.88;5049713;28;20045;-68
2021/01/26 02:47:55;;;;;;;;;;;;;;;2.77;64.23;98908.91;5046124;28;20645;-70
2021/01/26 02:50:26;;;;;;;42.67;25.73;;;;;;;2.65;64.66;98909.69;5049114;28;19932;-70
2021/01/26 02:53:03;;;;;;;42.55;27.42;;;;;;;2.64;64.56;98910.63;5049162;28;20530;-70
2021/01/26 02:55:37;;;;;;;34.45;23.98;;;;;;;2.66;64.35;98908.75;5048591;28;20661;-71
2021/01/26 02:58:15;;;;;;;41.58;30.33;;;;;;;2.70;64.29;98906.78;5049368;28;20055;-70
2021/01/26 03:00:42;;;;;;;42.25;24.50;;;;;;;2.66;64.26;98909.59;5048749;28;20057;-70
2021/01/26 03:03:12;;;;;;;40.22;24.48;;;;;;;2.67;64.39;98911.28;5047999;28;20053;-70
2021/01/26 03:05:43;;;;;;;40.00;25.67;;;;;;;2.67;64.07;98911.28;5048040;28;20481;-69
2021/01/26 03:08:16;;;;;;;40.83;27.27;;;;;;;2.64;64.13;98913.22;5047966;28;20041;-70
2021/01/26 03:10:55;;;;;;;38.33;26.30;;;;;;;2.71;64.21;98917.13;5047376;28;20659;-71
2021/01/26 03:13:25;;;;;;;36.65;25.98;;;;;;;2.67;64.13;98911.28;5048171;28;20045;-70
2021/01/26 03:15:59;;;;;;;39.03;26.90;;;;;;;2.70;63.89;98925.03;5047478;28;20053;-71
2021/01/26 03:18:36;;;;;;;38.60;29.70;;;;;;;2.65;64.25;98912.31;5048388;28;20053;-70
2021/01/26 03:21:05;;;;;;;39.17;24.65;;;;;;;2.68;63.94;98925.13;5053130;28;20045;-68
2021/01/26 03:23:37;;;;;;;40.75;27.25;;;;;;;2.71;63.91;98919.75;5059898;28;20056;-71
2021/01/26 03:26:06;;;;;;;44.38;29.00;;;;;;;2.70;64.01;98925.88;5056715;28;20049;-70
2021/01/26 03:28:34;;;;;;;43.45;29.17;;;;;;;2.62;64.05;98922.91;5063583;28;20045;-71
2021/01/26 03:31:00;;;;;;;39.08;26.00;;;;;;;2.65;64.15;98926.16;5067036;28;20048;-70
2021/01/26 03:33:33;;;;;;;31.83;22.88;;;;;;;2.63;64.02;98922.00;5066764;28;20045;-72
2021/01/26 03:36:00;;;;;;;43.60;27.30;;;;;;;2.62;64.20;98928.13;5067973;28;20045;-70
2021/01/26 03:38:29;;;;;;;38.60;27.10;;;;;;;2.60;64.38;98925.59;5066253;28;20055;-72
2021/01/26 03:40:58;;;;;;;39.83;25.05;;;;;;;2.64;64.08;98923.66;5052824;28;20106;-72
2021/01/26 03:43:25;;;;;;;40.25;28.50;;;;;;;2.59;64.21;98925.69;5050204;28;20053;-72
2021/01/26 03:46:00;;;;;;;37.92;29.08;;;;;;;2.59;64.30;98933.53;5051902;28;20049;-71
2021/01/26 03:48:41;;;;;;;35.15;26.75;;;;;;;2.59;63.82;98923.09;5057468;28;20048;-72
2021/01/26 03:51:13;;;;;;;36.88;26.40;;;;;;;2.58;63.96;98937.06;5058907;28;20044;-70
2021/01/26 03:54:16;;;;;;;33.53;24.08;;;;;;;2.56;64.17;98933.72;5065105;28;20044;-72
2021/01/26 03:57:02;;;;;;;37.45;27.00;;;;;;;2.52;64.30;98932.22;5067599;28;20195;-70
2021/01/26 03:59:36;;;;;;;43.90;26.33;;;;;;;2.55;64.13;98927.66;5067231;28;20041;-72
2021/01/26 04:02:14;;;;;;;45.38;25.38;;;;;;;2.58;64.32;98937.06;5064567;28;20045;-71
2021/01/26 04:04:48;;;;;;;34.85;27.80;;;;;;;2.55;64.38;98919.00;5063299;28;20060;-71
2021/01/26 04:07:20;;;;;;;47.33;28.02;;;;;;;2.57;63.88;98938.00;5065999;28;20053;-70
2021/01/26 04:09:53;;;;;;;35.05;22.48;;;;;;;2.56;64.18;98942.38;5064403;28;20045;-71
2021/01/26 04:12:24;;;;;;;36.55;23.70;;;;;;;2.67;63.91;98946.94;5066664;28;20079;-70
2021/01/26 04:14:57;;;;;;;43.05;26.55;;;;;;;2.62;64.13;98944.59;5064432;28;20045;-73
2021/01/26 04:17:28;;;;;;;50.35;28.88;;;;;;;2.66;63.84;98940.03;5060136;28;20049;-72
2021/01/26 04:20:05;;;;;;;51.38;31.10;;;;;;;2.63;64.30;98943.69;5062925;28;20025;-69
2021/01/26 04:22:33;;;;;;;39.90;26.60;;;;;;;2.62;64.08;98949.81;5065692;28;20105;-72
2021/01/26 04:24:59;;;;;;;48.35;28.10;;;;;;;2.65;63.58;98943.59;5048481;28;20068;-74
2021/01/26 04:27:26;;;;;;;50.95;29.40;;;;;;;2.63;63.88;98945.47;5063192;28;20250;-73
2021/01/26 04:29:54;;;;;;;45.10;24.90;;;;;;;2.65;64.13;98949.63;5055826;28;20264;-72
2021/01/26 04:32:22;;;;;;;44.42;27.17;;;;;;;2.61;64.02;98942.94;5056029;28;20132;-72
2021/01/26 04:34:48;;;;;;;41.63;27.42;;;;;;;2.64;63.78;98941.91;5057905;28;20050;-72
2021/01/26 04:37:15;;;;;;;41.83;30.92;;;;;;;2.63;64.04;98951.50;5054260;28;20409;-71
2021/01/26 04:39:41;;;;;;;37.40;26.60;;;;;;;2.59;63.88;98949.16;5046902;28;20053;-70
2021/01/26 04:42:12;;;;;;;44.58;31.65;;;;;;;2.62;63.91;98951.59;5048199;28;20665;-72
2021/01/26 04:45:08;;;;;;;44.60;30.27;;;;;;;2.62;63.83;98946.38;5050477;28;20059;-70
2021/01/26 04:47:37;;;;;;;;;;;;;;;2.73;63.28;98949.16;5052700;28;20041;-71
2021/01/26 04:50:14;;;;;;;51.20;36.05;;;;;;;2.54;64.23;98956.41;5053995;28;20739;-72
2021/01/26 04:53:18;;;;;;;34.13;22.75;;;;;;;2.55;64.54;98945.06;5051924;28;20045;-71
2021/01/26 04:55:57;;;;;;;50.55;32.00;;;;;;;2.54;64.22;98951.19;4988561;28;20047;-72
2021/01/26 04:58:44;;;;;;;44.67;27.70;;;;;;;2.52;64.29;98956.53;4989714;28;20038;-71
2021/01/26 05:01:24;;;;;;;43.28;25.80;;;;;;;2.55;64.31;98963.31;4992477;28;20054;-71
2021/01/26 05:04:00;;;;;;;48.22;28.25;;;;;;;2.62;64.20;98964.63;4991417;28;20069;-72
2021/01/26 05:06:34;;;;;;;45.60;30.15;;;;;;;2.63;64.23;98963.69;4991399;28;20193;-73
2021/01/26 05:09:04;;;;;;;46.30;31.48;;;;;;;2.66;63.88;98960.88;4989058;28;20145;-71
2021/01/26 05:11:36;;;;;;;44.25;29.25;;;;;;;2.62;64.05;98964.63;4988850;28;20506;-69
2021/01/26 05:14:15;;;;;;;41.03;28.02;;;;;;;2.64;64.19;98968.78;4989294;28;20051;-71
2021/01/26 05:16:51;;;;;;;44.88;29.38;;;;;;;2.61;64.45;98963.78;4988317;28;20253;-69
2021/01/26 05:19:22;;;;;;;37.17;27.13;;;;;;;2.63;64.25;98961.09;4995404;28;20489;-74
2021/01/26 05:21:57;;;;;;;56.15;32.08;;;;;;;2.64;64.32;98967.97;4995895;28;20296;-73
2021/01/26 05:24:29;;;;;;;49.10;26.83;;;;;;;2.65;64.08;98965.28;4987569;28;20054;-70
2021/01/26 05:26:55;;;;;;;41.90;26.45;;;;;;;2.60;64.29;98967.31;4986372;28;20050;-70
2021/01/26 05:29:22;;;;;;;51.85;30.25;;;;;;;2.60;64.45;98972.53;4986817;28;20050;-69
2021/01/26 05:31:57;;;;;;;41.45;26.10;;;;;;;2.60;64.41;98972.53;5012876;28;20127;-71
2021/01/26 05:34:29;;;;;;;41.63;29.10;;;;;;;2.64;64.08;98965.38;5049758;28;20501;-72
2021/01/26 05:36:55;;;;;;;41.72;27.05;;;;;;;2.60;64.11;98975.13;5051215;28;20045;-70
2021/01/26 05:39:28;;;;;;;37.20;26.02;;;;;;;2.56;64.62;98972.81;5057248;28;20049;-71
2021/01/26 05:41:56;;;;;;;41.35;26.17;;;;;;;2.56;64.50;98973.66;5066591;28;20076;-71
2021/01/26 05:44:22;;;;;;;36.67;26.60;;;;;;;2.58;64.55;98984.00;5067305;28;20212;-71
2021/01/26 05:46:50;;;;;;;38.00;25.23;;;;;;;2.56;64.52;98980.66;5068233;28;20105;-71
2021/01/26 05:49:38;;;;;;;39.42;25.45;;;;;;;2.56;64.50;98971.03;5059328;28;20053;-72
2021/01/26 05:52:06;;;;;;;41.45;24.85;;;;;;;2.56;64.73;98981.47;5065724;28;20067;-71
2021/01/26 05:54:37;;;;;;;37.42;22.33;;;;;;;2.61;64.34;98986.41;5064538;28;20053;-74
2021/01/26 05:57:04;;;;;;;37.67;25.13;;;;;;;2.62;64.46;98980.25;5059944;28;20049;-76
2021/01/26 05:59:33;;;;;;;48.88;34.35;;;;;;;2.60;64.31;98982.13;5052867;28;20088;-75
2021/01/26 06:02:11;;;;;;;40.03;26.48;;;;;;;2.56;64.58;98981.47;5058433;28;20303;-74
2021/01/26 06:04:38;;;;;;;37.50;25.02;;;;;;;2.53;64.49;98980.81;5060230;28;20055;-74
2021/01/26 06:07:16;;;;;;;35.72;20.58;;;;;;;2.60;64.26;98982.13;5063172;28;20067;-74
2021/01/26 06:09:43;;;;;;;28.33;21.67;;;;;;;2.63;63.90;98987.16;5052352;28;20040;-74
2021/01/26 06:12:14;;;;;;;40.92;23.30;;;;;;;2.61;64.14;98989.88;5054917;28;20056;-74
2021/01/26 06:14:42;;;;;;;36.60;21.65;;;;;;;2.67;63.88;98999.06;5055063;28;20147;-77
2021/01/26 06:17:12;;;;;;;35.03;22.02;;;;;;;2.63;63.78;98992.38;5053523;28;20049;-71
2021/01/26 06:19:40;;;;;;;35.30;24.23;;;;;;;2.60;64.35;98992.56;5054173;28;20045;-71
2021/01/26 06:22:07;;;;;;;41.25;27.42;;;;;;;2.60;64.31;99000.38;5052745;28;20045;-72
2021/01/26 06:24:36;;;;;;;38.83;23.27;;;;;;;2.66;64.06;99000.00;5051471;28;20056;-71
2021/01/26 06:27:33;;;;;;;41.13;25.63;;;;;;;2.62;64.41;99007.16;5051948;28;20072;-69
2021/01/26 06:30:09;;;;;;;42.00;27.58;;;;;;;2.62;64.08;99007.16;5047317;28;20114;-71
2021/01/26 06:32:51;;;;;;;37.83;28.67;;;;;;;2.63;64.23;99014.06;5052633;28;20087;-70
2021/01/26 06:35:24;;;;;;;37.85;25.02;;;;;;;2.60;64.33;99021.22;5051755;28;20079;-71
2021/01/26 06:38:18;;;;;;;39.40;25.60;;;;;;;2.60;64.51;99018.63;5052148;28;20055;-72
2021/01/26 06:41:07;;;;;;;44.45;33.88;;;;;;;2.62;64.38;99025.41;5051722;28;20045;-70
2021/01/26 06:43:55;;;;;;;46.67;31.63;;;;;;;2.65;64.36;99020.03;5049576;28;20508;-72
2021/01/26 06:46:36;;;;;;;41.67;27.10;;;;;;;2.66;64.46;99029.50;5050228;28;20262;-73
2021/01/26 06:49:19;;;;;;;37.08;26.15;;;;;;;2.66;64.35;99028.66;5048993;28;20052;-70
2021/01/26 06:52:22;;;;;;;48.30;31.17;;;;;;;2.66;64.61;99034.72;5042920;28;20637;-71
2021/01/26 06:55:11;;;;;;;40.75;26.70;;;;;;;2.70;64.43;99040.59;4962251;28;20047;-69
2021/01/26 06:58:19;;;;;;;45.47;28.23;;;;;;;2.74;64.73;99052.53;4961094;28;20112;-70
2021/01/26 07:00:55;;;;;;;43.05;28.58;;;;;;;2.76;64.36;99050.66;4961790;28;20047;-72
2021/01/26 07:03:59;;;;;;;44.97;29.17;;;;;;;2.82;64.33;99058.09;4957418;28;20113;-71
2021/01/26 07:07:25;;;;;;;42.25;27.77;;;;;;;2.86;64.24;99053.53;4961055;28;20053;-71
2021/01/26 07:10:07;;;;;;;44.63;25.30;;;;;;;2.84;64.61;99055.41;4943461;29;20047;-71
2021/01/26 07:12:50;;;;;;;45.58;23.73;;;;;;;2.86;64.43;99030.09;4943786;29;20070;-71
2021/01/26 07:15:30;;;;;;;40.33;25.95;;;;;;;2.88;64.50;99043.84;4945722;29;20117;-71
2021/01/26 07:18:17;;;;;;;38.08;26.10;;;;;;;2.89;64.23;99044.72;4945075;29;20053;-71
2021/01/26 07:20:56;;;;;;;39.83;22.10;;;;;;;2.90;64.25;99051.59;4943472;29;20526;-73
2021/01/26 07:23:42;;;;;;;41.15;27.92;;;;;;;2.94;63.94;99046.13;4941282;29;20049;-73
2021/01/26 07:26:46;;;;;;;40.20;29.33;;;;;;;2.90;63.98;99035.94;4943559;29;20043;-71
2021/01/26 07:29:48;;;;;;;33.60;19.60;;;;;;;2.99;64.29;99044.06;4941447;29;20047;-72
2021/01/26 07:32:21;;;;;;;36.67;24.77;;;;;;;3.01;63.83;99054.41;4971359;28;20782;-74
2021/01/26 07:34:59;;;;;;;42.50;30.70;;;;;;;3.02;63.69;99050.84;4983816;28;20058;-73
2021/01/26 07:37:33;;;;;;;36.78;24.45;;;;;;;3.02;63.75;99058.69;4980307;28;20315;-72
2021/01/26 07:40:09;;;;;;;49.05;32.53;;;;;;;3.04;63.99;99055.06;4958642;28;20047;-72
2021/01/26 07:42:43;;;;;;;38.15;25.65;;;;;;;3.02;63.88;99054.28;4958446;28;20407;-70
2021/01/26 07:45:17;;;;;;;38.13;27.30;;;;;;;3.02;63.85;99059.50;4990843;28;20052;-70
2021/01/26 07:47:49;;;;;;;42.23;26.83;;;;;;;3.01;63.76;99064.84;5018193;28;20045;-69
2021/01/26 07:50:21;;;;;;;40.38;21.77;;;;;;;3.05;64.11;99061.94;5017550;28;20053;-70
2021/01/26 07:52:51;;;;;;;36.20;27.73;;;;;;;3.07;63.97;99059.25;5020507;28;20295;-71
2021/01/26 07:55:24;;;;;;;44.03;29.05;;;;;;;3.03;63.82;99058.59;4998270;28;20041;-70
2021/01/26 07:58:00;;;;;;;46.53;27.52;;;;;;;3.04;64.14;99064.66;5026298;28;20040;-70
2021/01/26 08:00:30;;;;;;;45.15;30.92;;;;;;;3.04;63.40;99051.59;5038095;28;20110;-70
2021/01/26 08:02:59;;;;;;;40.78;32.17;;;;;;;3.00;63.48;99058.78;5036596;28;20045;-69
2021/01/26 08:05:43;;;;;;;43.30;25.50;;;;;;;3.01;63.97;99054.41;5045595;28;20045;-72
2021/01/26 08:08:17;;;;;;;44.72;32.30;;;;;;;3.00;63.66;99063.16;5038167;28;20053;-71
2021/01/26 08:10:44;;;;;;;42.47;27.50;;;;;;;2.98;63.58;99068.47;5034941;28;20052;-70
2021/01/26 08:13:12;;;;;;;47.88;32.53;;;;;;;2.99;63.53;99071.91;5041808;28;20048;-70
2021/01/26 08:15:40;;;;;;;38.28;26.15;;;;;;;3.01;63.45;99065.69;5036762;28;20124;-70
2021/01/26 08:18:24;;;;;;;43.72;29.98;;;;;;;3.01;63.54;99063.06;5039446;28;20052;-70
2021/01/26 08:20:50;;;;;;;43.25;31.33;;;;;;;3.04;62.90;99064.66;5039882;28;20120;-70
2021/01/26 08:23:26;;;;;;;38.67;28.02;;;;;;;3.05;62.75;99068.94;5037487;28;20067;-70
2021/01/26 08:25:55;;;;;;;43.15;31.80;;;;;;;3.03;62.70;99066.44;5039108;28;20041;-68
2021/01/26 08:28:52;;;;;;;41.08;29.92;;;;;;;3.07;62.49;99069.69;5039446;28;20645;-70
2021/01/26 08:31:28;;;;;;;42.17;27.15;;;;;;;3.14;62.13;99085.81;4974175;28;20046;-71
2021/01/26 08:34:16;;;;;;;39.63;30.48;;;;;;;3.10;62.14;99077.34;4975798;28;20046;-71
2021/01/26 08:36:43;;;;;;;39.70;30.70;;;;;;;3.12;61.74;99080.69;4974682;28;20053;-71
2021/01/26 08:39:41;;;;;;;43.38;31.80;;;;;;;3.05;62.03;99080.22;4973322;28;20050;-70
2021/01/26 08:42:09;;;;;;;42.22;33.58;;;;;;;2.97;62.50;99085.06;4975571;28;20050;-70
2021/01/26 08:45:05;;;;;;;43.83;30.50;;;;;;;2.98;62.96;99083.28;4973355;28;20050;-72
2021/01/26 08:47:44;;;;;;;42.78;33.22;;;;;;;2.99;62.52;99088.41;4973742;28;20034;-71
2021/01/26 08:50:31;;;;;;;46.03;28.85;;;;;;;2.99;62.67;99092.78;4975750;28;20050;-72
2021/01/26 08:53:18;;;;;;;43.95;29.30;;;;;;;3.04;62.38;99093.34;4982355;28;20049;-72
2021/01/26 08:55:46;;;;;;;44.45;33.75;;;;;;;3.05;62.76;99085.44;4982766;28;20046;-74
2021/01/26 08:58:34;;;;;;;50.22;32.45;;;;;;;3.05;62.78;99100.25;4980720;28;20046;-73
2021/01/26 09:01:01;;;;;;;41.67;31.45;;;;;;;3.06;62.26;99100.16;4977651;28;20078;-72
2021/01/26 09:03:42;;;;;;;45.25;29.58;;;;;;;3.06;62.40;99105.38;4982816;28;20057;-79
2021/01/26 09:06:44;;;;;;;47.53;33.67;;;;;;;3.11;62.04;99101.66;5028507;28;20075;-74
2021/01/26 09:09:15;;;;;;;46.45;33.50;;;;;;;3.08;62.14;99107.91;5036653;28;20097;-77
2021/01/26 09:11:51;;;;;;;36.75;26.67;;;;;;;3.12;61.33;99106.78;5038417;28;20121;-73
2021/01/26 09:14:29;;;;;;;44.75;29.90;;;;;;;3.15;61.61;99118.78;5034945;28;20044;-74
2021/01/26 09:17:03;;;;;;;35.58;31.38;;;;;;;3.22;60.85;99107.91;5037197;28;20059;-72
2021/01/26 09:19:39;;;;;;;32.33;23.85;;;;;;;3.19;61.01;99110.69;5039210;28;20052;-70
2021/01/26 09:22:12;;;;;;;32.58;25.63;;;;;;;3.22;60.74;99110.53;5036097;28;20045;-73
2021/01/26 09:24:39;;;;;;;34.20;28.80;;;;;;;3.21;60.74;99110.59;5040635;28;20045;-75
2021/01/26 09:27:17;;;;;;;38.15;25.73;;;;;;;3.21;61.10;99121.03;5036274;28;20049;-72
2021/01/26 09:29:44;;;;;;;42.53;28.55;;;;;;;3.27;61.01;99118.06;5037414;28;20074;-73
2021/01/26 09:32:24;;;;;;;38.10;22.98;;;;;;;3.46;60.89;99128.22;5039172;28;20128;-74
2021/01/26 09:34:51;;;;;;;37.92;28.48;;;;;;;3.44;60.18;99119.66;5039738;28;20046;-74
2021/01/26 09:37:23;;;;;;;34.28;26.05;;;;;;;3.42;60.41;99118.88;5032304;28;20075;-71
2021/01/26 09:39:52;;;;;;;36.92;29.02;;;;;;;3.46;60.39;99120.38;5037024;28;20178;-74
2021/01/26 09:42:22;;;;;;;36.10;31.10;;;;;;;3.48;60.30;99115.91;5038110;28;20624;-73
2021/01/26 09:44:58;;;;;;;35.42;27.30;;;;;;;3.47;60.43;99124.66;5035682;28;20395;-72
2021/01/26 09:47:26;;;;;;;39.72;27.80;;;;;;;3.46;60.07;99125.63;5035797;28;20049;-72
2021/01/26 09:50:01;;;;;;;38.20;31.05;;;;;;;3.47;60.30;99129.88;5033633;28;20037;-72
2021/01/26 09:52:28;;;;;;;37.47;30.15;;;;;;;3.42;60.01;99124.09;5047291;28;20766;-71
2021/01/26 09:55:04;;;;;;;35.30;26.67;;;;;;;3.42;60.54;99126.72;5047257;28;20048;-71
2021/01/26 09:57:30;;;;;;;;;;;;;;;3.70;60.11;99130.25;5045344;28;20057;-72
2021/01/26 10:00:01;;;;;;;37.38;27.48;;;;;;;3.50;60.19;99129.69;5049944;28;19925;-72
2021/01/26 10:02:35;;;;;;;31.70;23.85;;;;;;;3.41;60.04;99125.88;5045401;28;20709;-70
2021/01/26 10:05:44;;;;;;;36.88;27.42;;;;;;;3.34;60.79;99132.41;5039389;28;20075;-71
2021/01/26 10:11:27;;;;;;;35.20;24.60;;;;;;;3.35;60.78;99141.06;4943243;29;20084;-74
2021/01/26 10:14:15;;;;;;;40.15;25.08;;;;;;;3.37;60.89;99140.06;4901786;29;20039;-75
2021/01/26 10:16:44;;;;;;;34.70;25.30;;;;;;;3.36;60.30;99147.97;4910758;29;20048;-74
2021/01/26 10:19:16;;;;;;;37.13;26.02;;;;;;;3.35;60.51;99148.91;4907110;29;20052;-73
2021/01/26 10:21:44;;;;;;;38.95;26.90;;;;;;;3.40;60.92;99139.03;4912358;29;20054;-72
2021/01/26 10:24:22;;;;;;;31.98;23.70;;;;;;;3.37;61.18;99140.06;4923742;29;20112;-75
2021/01/26 10:26:49;;;;;;;34.75;23.70;;;;;;;3.42;60.88;99139.75;4912141;29;20060;-75
2021/01/26 10:29:30;;;;;;;37.20;24.95;;;;;;;3.39;61.28;99145.19;4916199;29;20067;-75
2021/01/26 10:31:59;;;;;;;32.85;22.48;;;;;;;3.47;61.48;99144.72;4924769;28;20728;-72
2021/01/26 10:34:44;;;;;;;31.92;22.25;;;;;;;3.47;61.48;99144.72;4959286;28;20046;-75
2021/01/26 10:37:32;;;;;;;39.17;27.05;;;;;;;3.36;62.00;99142.75;4940627;29;20073;-75
2021/01/26 10:40:18;;;;;;;39.28;29.27;;;;;;;3.36;61.95;99132.31;4939192;29;20051;-74
2021/01/26 10:42:56;;;;;;;32.83;18.85;;;;;;;3.42;62.01;99145.84;4941809;29;20760;-75
2021/01/26 10:45:36;;;;;;;43.30;28.73;;;;;;;3.43;62.15;99144.06;4940444;29;20063;-74
2021/01/26 10:48:08;;;;;;;33.95;17.25;;;;;;;3.56;61.52;99144.16;4952614;28;20080;-76
2021/01/26 10:50:35;;;;;;;35.58;26.83;;;;;;;3.44;61.41;99138.75;4979939;28;20046;-73
2021/01/26 10:53:02;;;;;;;41.63;29.60;;;;;;;3.36;61.90;99135.75;4980530;28;20660;-74
2021/01/26 10:55:28;;;;;;;31.00;21.65;;;;;;;3.31;61.20;99137.81;4980125;28;20202;-75
2021/01/26 10:57:54;;;;;;;35.63;21.75;;;;;;;3.39;61.18;99140.81;4986885;28;20076;-74
2021/01/26 11:00:26;;;;;;;37.10;24.63;;;;;;;3.39;61.33;99135.56;4997962;28;20666;-75
2021/01/26 11:02:53;;;;;;;36.85;23.13;;;;;;;3.48;60.33;99128.13;5041855;28;20045;-77
2021/01/26 11:05:20;;;;;;;32.05;22.58;;;;;;;3.44;60.08;99130.91;5042511;28;20130;-73
2021/01/26 11:07:48;;;;;;;33.40;22.38;;;;;;;3.48;60.08;99126.34;5039663;28;20045;-73
2021/01/26 11:10:15;;;;;;;33.92;22.60;;;;;;;3.74;59.37;99123.91;5038725;28;20056;-73
2021/01/26 11:12:42;;;;;;;30.88;23.50;;;;;;;3.69;58.63;99121.59;5042342;28;20041;-74
2021/01/26 11:15:11;;;;;;;29.73;21.42;;;;;;;3.78;58.70;99123.63;5039375;28;20045;-73
2021/01/26 11:17:38;;;;;;;33.00;20.40;;;;;;;3.82;58.12;99119.88;5051852;28;20032;-76
2021/01/26 11:20:06;;;;;;;34.92;18.20;;;;;;;3.82;58.09;99126.88;5044967;28;20049;-75
2021/01/26 11:22:33;;;;;;;33.60;22.40;;;;;;;3.87;57.81;99121.34;5038239;28;20037;-73
2021/01/26 11:25:00;;;;;;;29.52;16.23;;;;;;;4.01;57.78;99124.75;5038965;28;20059;-73
2021/01/26 11:27:27;;;;;;;29.65;18.67;;;;;;;4.17;57.19;99129.84;5040428;28;20044;-72
2021/01/26 11:29:53;;;;;;;26.35;13.68;;;;;;;4.22;57.16;99130.41;5037478;28;20041;-73
2021/01/26 11:32:21;;;;;;;27.33;17.33;;;;;;;4.26;56.46;99123.19;5040324;28;20060;-72
2021/01/26 11:34:48;;;;;;;26.25;19.20;;;;;;;4.29;56.49;99128.22;5039084;28;20090;-73
2021/01/26 11:37:14;;;;;;;29.40;21.08;;;;;;;4.21;56.18;99126.13;5038464;28;20129;-74
2021/01/26 11:39:41;;;;;;;23.60;15.82;;;;;;;4.11;56.52;99126.81;5038567;28;20047;-74
2021/01/26 11:42:09;;;;;;;27.30;21.35;;;;;;;4.04;56.51;99117.69;5037438;28;20045;-74
2021/01/26 11:44:38;;;;;;;31.15;20.35;;;;;;;3.97;57.30;99128.50;5021574;28;20056;-74
2021/01/26 11:47:04;;;;;;;32.67;20.73;;;;;;;3.92;57.49;99132.34;5041395;28;20051;-75
2021/01/26 11:49:32;;;;;;;29.00;23.95;;;;;;;3.79;57.81;99127.88;5042632;28;20053;-74
2021/01/26 11:51:58;;;;;;;30.65;21.20;;;;;;;3.77;57.99;99131.53;5038113;28;20036;-73
2021/01/26 11:54:25;;;;;;;29.70;20.67;;;;;;;3.74;58.38;99137.78;5040479;28;20051;-74
2021/01/26 11:56:52;;;;;;;27.55;19.33;;;;;;;3.77;57.88;99131.53;5021698;28;20175;-75
2021/01/26 11:59:19;;;;;;;30.85;20.25;;;;;;;3.85;57.61;99137.09;5039550;28;20086;-72
2021/01/26 12:01:46;;;;;;;26.38;17.63;;;;;;;3.88;57.49;99139.53;5041545;28;20068;-73